createdAt,value
2023-08-04T00:01:40.965Z,34.87
2023-08-04T00:12:00.452Z,35.30
2023-08-04T00:22:28.382Z,35.49
2023-08-04T00:33:59.724Z,35.85
2023-08-04T00:36:57.203Z,36.19
2023-08-04T00:40:45.809Z,36.19
2023-08-04T00:43:21.923Z,36.25
2023-08-04T00:45:54.549Z,36.34
2023-08-04T00:48:31.761Z,36.52
2023-08-04T00:51:04.305Z,36.52
2023-08-04T00:53:36.689Z,36.61
2023-08-04T00:56:09.284Z,36.81
2023-08-04T00:58:41.886Z,36.73
2023-08-04T01:01:14.580Z,36.91
2023-08-04T01:03:53.116Z,36.93
2023-08-04T01:06:31.323Z,36.93
2023-08-04T01:09:10.030Z,37.00
2023-08-04T01:17:57.572Z,37.34
2023-08-04T01:20:31.450Z,37.44
2023-08-04T01:23:04.152Z,37.53
2023-08-04T01:25:37.860Z,37.69
2023-08-04T01:28:14.013Z,37.70
2023-08-04T01:30:50.133Z,37.80
2023-08-04T01:33:22.567Z,37.89
2023-08-04T01:42:11.232Z,37.99
2023-08-04T01:44:43.811Z,38.35
2023-08-04T01:47:16.288Z,38.38
2023-08-04T01:49:48.672Z,38.24
2023-08-04T01:52:21.238Z,38.48
2023-08-04T01:54:53.830Z,38.66
2023-08-04T01:57:26.283Z,38.65
2023-08-04T01:59:58.737Z,38.56
2023-08-04T02:02:31.933Z,38.55
2023-08-04T02:05:04.390Z,38.76
2023-08-04T02:07:37.411Z,38.86
2023-08-04T02:10:11.804Z,38.92
2023-08-04T02:12:44.476Z,38.92
2023-08-04T02:15:17.570Z,39.09
2023-08-04T02:17:51.829Z,39.19
2023-08-04T02:20:24.408Z,39.49
2023-08-04T02:22:57.038Z,39.15
2023-08-04T02:25:29.388Z,39.55
2023-08-04T02:28:01.787Z,39.64
2023-08-04T02:30:34.162Z,39.68
2023-08-04T02:33:06.762Z,39.95
2023-08-04T02:35:39.215Z,39.89
2023-08-04T02:38:12.643Z,39.99
2023-08-04T02:40:45.078Z,40.05
2023-08-04T02:43:17.574Z,40.03
2023-08-04T02:45:53.210Z,40.12
2023-08-04T02:48:25.870Z,40.07
2023-08-04T02:51:05.372Z,40.26
2023-08-04T02:53:38.854Z,40.36
2023-08-04T02:56:14.967Z,40.39
2023-08-04T02:58:48.716Z,40.49
2023-08-04T03:01:21.235Z,40.64
2023-08-04T03:03:53.770Z,40.84
2023-08-04T03:06:26.392Z,40.82
2023-08-04T03:08:58.952Z,40.72
2023-08-04T03:11:31.514Z,40.95
2023-08-04T03:14:04.072Z,40.89
2023-08-04T03:16:36.564Z,41.01
2023-08-04T03:19:08.965Z,41.08
2023-08-04T03:21:41.645Z,41.22
2023-08-04T03:24:13.999Z,41.15
2023-08-04T03:26:46.670Z,41.39
2023-08-04T03:29:19.058Z,41.18
2023-08-04T03:31:51.755Z,41.45
2023-08-04T03:34:24.358Z,41.42
2023-08-04T03:36:56.692Z,41.47
2023-08-04T03:39:29.482Z,41.62
2023-08-04T03:42:01.830Z,41.65
2023-08-04T03:44:34.414Z,41.67
2023-08-04T03:47:07.854Z,41.78
2023-08-04T03:49:42.029Z,41.91
2023-08-04T03:52:14.952Z,42.11
2023-08-04T03:54:47.556Z,42.13
2023-08-04T03:57:20.035Z,42.06
2023-08-04T03:59:53.486Z,42.21
2023-08-04T04:02:25.958Z,42.25
2023-08-04T04:04:58.491Z,42.26
2023-08-04T04:07:30.940Z,42.45
2023-08-04T04:10:03.443Z,42.49
2023-08-04T04:12:37.607Z,42.46
2023-08-04T04:15:12.265Z,42.43
2023-08-04T04:17:44.676Z,42.59
2023-08-04T04:30:22.974Z,42.68
2023-08-04T04:32:55.526Z,42.81
2023-08-04T04:35:28.098Z,42.78
2023-08-04T04:38:00.505Z,43.00
2023-08-04T04:40:32.986Z,43.02
2023-08-04T04:43:05.382Z,42.99
2023-08-04T04:45:38.076Z,43.06
2023-08-04T04:48:10.638Z,43.13
2023-08-04T04:50:43.846Z,43.00
2023-08-04T04:53:16.490Z,43.10
2023-08-04T04:55:49.012Z,43.26
2023-08-04T04:58:21.190Z,43.31
2023-08-04T05:00:53.475Z,43.19
2023-08-04T05:03:25.866Z,43.15
2023-08-04T05:05:58.508Z,43.19
2023-08-04T05:08:31.234Z,43.28
2023-08-04T05:11:03.598Z,43.34
2023-08-04T05:13:36.005Z,43.34
2023-08-04T05:16:08.783Z,43.43
2023-08-04T05:18:41.157Z,43.32
2023-08-04T05:21:13.513Z,43.46
2023-08-04T05:23:46.107Z,43.20
2023-08-04T05:26:18.620Z,43.37
2023-08-04T05:28:51.178Z,43.40
2023-08-04T05:37:05.554Z,43.60
2023-08-04T05:39:37.878Z,43.37
2023-08-04T05:42:11.613Z,43.34
2023-08-04T05:44:44.713Z,43.48
2023-08-04T05:47:19.429Z,43.39
2023-08-04T05:50:03.563Z,43.38
2023-08-04T05:52:40.463Z,43.47
2023-08-04T05:55:17.037Z,43.46
2023-08-04T05:57:50.601Z,43.42
2023-08-04T06:00:31.259Z,43.28
2023-08-04T06:03:05.799Z,43.26
2023-08-04T06:05:43.385Z,43.21
2023-08-04T06:08:16.797Z,43.16
2023-08-04T06:10:49.985Z,43.24
2023-08-04T06:13:24.062Z,43.21
2023-08-04T06:15:58.571Z,43.01
2023-08-04T06:18:32.241Z,42.82
2023-08-04T06:21:14.540Z,43.06
2023-08-04T06:23:47.828Z,43.03
2023-08-04T06:26:22.243Z,42.82
2023-08-04T06:28:56.428Z,42.66
2023-08-04T06:31:28.800Z,42.83
2023-08-04T06:34:01.817Z,42.62
2023-08-04T06:36:34.882Z,42.62
2023-08-04T06:39:07.551Z,42.61
2023-08-04T06:41:42.200Z,42.30
2023-08-04T06:44:16.495Z,42.45
2023-08-04T06:46:48.853Z,42.22
2023-08-04T06:49:21.116Z,42.09
2023-08-04T06:51:53.608Z,42.10
2023-08-04T06:54:26.065Z,41.90
2023-08-04T06:56:58.283Z,41.87
2023-08-04T06:59:31.235Z,41.71
2023-08-04T07:02:03.607Z,41.60
2023-08-04T07:04:36.037Z,41.53
2023-08-04T07:07:09.210Z,41.17
2023-08-04T07:09:41.610Z,41.10
2023-08-04T07:12:14.175Z,40.98
2023-08-04T07:14:46.399Z,40.66
2023-08-04T07:17:18.623Z,40.67
2023-08-04T07:19:52.013Z,40.35
2023-08-04T07:22:24.309Z,40.32
2023-08-04T07:24:56.692Z,40.07
2023-08-04T07:27:29.010Z,39.83
2023-08-04T07:30:01.589Z,39.71
2023-08-04T07:32:34.009Z,39.76
2023-08-04T07:35:07.189Z,39.13
2023-08-04T07:37:39.624Z,39.26
2023-08-04T07:40:14.854Z,38.90
2023-08-04T07:42:47.195Z,38.81
2023-08-04T07:45:20.246Z,38.56
2023-08-04T07:47:52.764Z,38.70
2023-08-04T07:50:25.202Z,38.24
2023-08-04T07:52:57.489Z,37.93
2023-08-04T07:55:29.787Z,37.93
2023-08-04T07:58:02.201Z,37.58
2023-08-04T08:00:34.702Z,37.30
2023-08-04T08:03:07.280Z,37.46
2023-08-04T08:05:39.802Z,37.14
2023-08-04T08:08:12.109Z,36.85
2023-08-04T08:10:44.706Z,36.69
2023-08-04T08:13:17.061Z,36.60
2023-08-04T08:15:49.539Z,36.28
2023-08-04T08:18:22.603Z,36.06
2023-08-04T08:20:54.906Z,35.77
2023-08-04T08:23:27.177Z,35.74
2023-08-04T08:25:59.507Z,35.43
2023-08-04T08:28:31.933Z,35.41
2023-08-04T08:31:04.222Z,35.24
2023-08-04T08:33:36.829Z,34.90
2023-08-04T08:36:09.180Z,34.76
2023-08-04T08:38:41.455Z,34.69
2023-08-04T08:41:14.918Z,34.61
2023-08-04T08:43:48.116Z,34.38
2023-08-04T08:46:21.160Z,34.08
2023-08-04T08:48:54.141Z,33.80
2023-08-04T08:51:28.045Z,33.85
2023-08-04T08:54:00.563Z,33.73
2023-08-04T08:56:32.872Z,33.34
2023-08-04T08:59:05.547Z,32.89
2023-08-04T09:01:37.923Z,32.93
2023-08-04T09:04:10.211Z,32.55
2023-08-04T09:06:42.820Z,32.51
2023-08-04T09:09:15.319Z,32.44
2023-08-04T09:11:48.052Z,32.30
2023-08-04T09:14:20.934Z,32.02
2023-08-04T09:16:53.547Z,31.81
2023-08-04T09:19:26.089Z,31.70
2023-08-04T09:22:02.143Z,31.37
2023-08-04T09:24:35.017Z,31.11
2023-08-04T09:27:08.366Z,31.12
2023-08-04T09:29:40.954Z,30.72
2023-08-04T09:32:16.250Z,30.53
2023-08-04T09:34:49.560Z,30.39
2023-08-04T09:37:22.071Z,30.28
2023-08-04T09:39:54.551Z,29.96
2023-08-04T09:42:27.258Z,29.55
2023-08-04T09:45:00.018Z,29.21
2023-08-04T09:47:32.656Z,29.19
2023-08-04T09:50:06.049Z,29.01
2023-08-04T09:52:38.861Z,28.69
2023-08-04T09:55:12.317Z,28.41
2023-08-04T09:57:44.918Z,28.45
2023-08-04T10:00:18.911Z,28.33
2023-08-04T10:02:51.665Z,27.67
2023-08-04T10:05:24.502Z,27.37
2023-08-04T10:07:57.061Z,27.10
2023-08-04T10:10:29.345Z,27.04
2023-08-04T10:13:02.243Z,26.81
2023-08-04T10:15:34.738Z,26.49
2023-08-04T10:18:08.456Z,26.22
2023-08-04T10:20:40.769Z,26.06
2023-08-04T10:23:15.147Z,25.78
2023-08-04T10:25:57.812Z,25.65
2023-08-04T10:28:30.120Z,25.51
2023-08-04T10:31:14.949Z,25.28
2023-08-04T10:33:47.253Z,24.99
2023-08-04T10:36:20.724Z,24.71
2023-08-04T10:38:55.760Z,24.55
2023-08-04T10:41:27.938Z,24.38
2023-08-04T10:44:03.798Z,23.85
2023-08-04T10:46:37.478Z,23.77
2023-08-04T10:49:10.045Z,23.35
2023-08-04T10:51:42.263Z,23.03
2023-08-04T10:54:14.587Z,23.02
2023-08-04T10:56:49.364Z,22.84
2023-08-04T10:59:21.497Z,22.74
2023-08-04T11:01:53.663Z,22.55
2023-08-04T11:04:26.191Z,22.36
2023-08-04T11:07:01.203Z,22.18
2023-08-04T11:09:33.675Z,21.88
2023-08-04T11:12:06.599Z,21.84
2023-08-04T11:14:39.738Z,21.64
2023-08-04T11:17:16.952Z,21.54
2023-08-04T11:19:50.466Z,21.22
2023-08-04T11:22:24.410Z,21.09
2023-08-04T11:24:57.004Z,20.87
2023-08-04T11:27:29.289Z,20.89
2023-08-04T11:30:01.515Z,20.70
2023-08-04T11:32:33.828Z,20.44
2023-08-04T11:50:39.128Z,19.58
2023-08-04T11:53:15.471Z,19.00
2023-08-04T11:56:04.311Z,18.73
2023-08-04T11:58:46.502Z,18.80
2023-08-04T12:01:40.514Z,18.56
2023-08-04T12:04:27.931Z,18.55
2023-08-04T12:07:05.010Z,18.18
2023-08-04T12:09:37.745Z,18.11
2023-08-04T12:12:14.227Z,17.95
2023-08-04T12:15:01.646Z,17.78
2023-08-04T12:17:42.826Z,17.70
2023-08-04T12:20:14.849Z,17.38
2023-08-04T12:22:47.579Z,17.42
2023-08-04T12:25:19.946Z,17.53
2023-08-04T12:27:52.321Z,17.16
2023-08-04T12:30:24.557Z,16.93
2023-08-04T12:32:56.799Z,17.17
2023-08-04T12:35:29.062Z,17.18
2023-08-04T12:38:05.283Z,17.13
2023-08-04T12:40:38.783Z,16.95
2023-08-04T12:43:11.013Z,16.92
2023-08-04T12:45:43.194Z,16.94
2023-08-04T12:48:15.328Z,16.83
2023-08-04T12:50:47.589Z,16.70
2023-08-04T12:53:20.021Z,16.74
2023-08-04T12:55:52.592Z,16.72
2023-08-04T12:58:25.051Z,16.45
2023-08-04T13:00:57.380Z,16.31
2023-08-04T13:03:29.569Z,16.47
2023-08-04T13:06:01.840Z,16.29
2023-08-04T13:08:34.103Z,16.38
2023-08-04T13:19:50.297Z,16.37
2023-08-04T13:22:22.514Z,16.12
2023-08-04T13:28:09.911Z,16.41
2023-08-04T13:30:46.383Z,16.07
2023-08-04T13:33:23.745Z,16.23
2023-08-04T13:35:56.245Z,16.19
2023-08-04T13:38:28.681Z,16.12
2023-08-04T13:41:01.007Z,16.15
2023-08-04T13:43:33.430Z,15.85
2023-08-04T13:46:05.762Z,15.88
2023-08-04T13:48:38.097Z,15.88
2023-08-04T13:51:24.999Z,15.90
2023-08-04T13:54:00.080Z,15.72
2023-08-04T13:56:32.480Z,15.70
2023-08-04T13:59:04.859Z,16.03
2023-08-04T14:01:37.771Z,15.87
2023-08-04T14:04:10.450Z,15.84
2023-08-04T14:06:42.926Z,15.66
2023-08-04T14:09:15.409Z,15.66
2023-08-04T14:11:48.196Z,15.51
2023-08-04T14:14:21.075Z,15.36
2023-08-04T14:16:53.409Z,15.24
2023-08-04T14:19:25.850Z,15.46
2023-08-04T14:21:58.342Z,15.56
2023-08-04T14:24:30.874Z,15.42
2023-08-04T14:27:04.111Z,15.42
2023-08-04T14:29:36.543Z,15.34
2023-08-04T14:32:09.635Z,15.24
2023-08-04T14:34:42.072Z,15.53
2023-08-04T14:37:14.603Z,15.51
2023-08-04T14:39:47.281Z,15.52
2023-08-04T14:42:20.207Z,15.50
2023-08-04T14:44:52.507Z,15.60
2023-08-04T14:47:25.024Z,15.36
2023-08-04T14:49:57.411Z,15.34
2023-08-04T14:52:29.680Z,15.36
2023-08-04T14:55:02.192Z,15.35
2023-08-04T14:57:34.417Z,15.48
2023-08-04T15:00:08.900Z,15.66
2023-08-04T15:02:41.725Z,15.55
2023-08-04T15:05:14.657Z,15.83
2023-08-04T15:07:47.173Z,15.97
2023-08-04T15:10:21.471Z,15.90
2023-08-04T15:12:53.889Z,15.89
2023-08-04T15:15:27.205Z,16.06
2023-08-04T15:17:59.846Z,15.93
2023-08-04T15:20:32.198Z,15.95
2023-08-04T15:23:04.737Z,16.04
2023-08-04T15:25:37.290Z,16.40
2023-08-04T15:28:09.836Z,16.36
2023-08-04T15:30:42.411Z,16.44
2023-08-04T15:33:16.675Z,16.29
2023-08-04T15:35:52.658Z,16.76
2023-08-04T15:38:24.865Z,16.88
2023-08-04T15:41:04.562Z,17.09
2023-08-04T15:43:38.596Z,17.17
2023-08-04T15:46:11.473Z,17.18
2023-08-04T15:48:43.752Z,17.32
2023-08-04T15:51:16.372Z,17.46
2023-08-04T15:53:50.293Z,17.50
2023-08-04T15:56:22.689Z,17.62
2023-08-04T15:58:55.147Z,17.60
2023-08-04T16:01:27.578Z,17.76
2023-08-04T16:03:59.914Z,17.87
2023-08-04T16:06:32.190Z,17.97
2023-08-04T16:09:05.408Z,18.03
2023-08-04T16:11:38.013Z,18.09
2023-08-04T16:14:10.649Z,18.27
2023-08-04T16:16:43.156Z,18.44
2023-08-04T16:19:16.854Z,18.51
2023-08-04T16:21:49.318Z,18.54
2023-08-04T16:24:21.644Z,18.59
2023-08-04T16:26:55.165Z,18.77
2023-08-04T16:29:27.463Z,18.78
2023-08-04T16:31:59.832Z,19.09
2023-08-04T16:34:32.251Z,19.05
2023-08-04T16:37:04.876Z,19.14
2023-08-04T16:39:38.204Z,19.29
2023-08-04T16:42:10.729Z,19.50
2023-08-04T16:44:42.941Z,19.79
2023-08-04T16:47:15.271Z,19.98
2023-08-04T16:49:48.299Z,20.14
2023-08-04T16:52:20.610Z,20.15
2023-08-04T16:54:53.330Z,20.54
2023-08-04T16:57:26.810Z,20.48
2023-08-04T16:59:59.646Z,20.57
2023-08-04T17:02:32.074Z,20.98
2023-08-04T17:05:05.347Z,21.27
2023-08-04T17:07:37.762Z,21.43
2023-08-04T17:10:11.422Z,21.68
2023-08-04T17:12:43.941Z,21.85
2023-08-04T17:15:29.927Z,21.66
2023-08-04T17:18:09.574Z,21.71
2023-08-04T17:20:42.031Z,21.95
2023-08-04T17:23:14.317Z,22.20
2023-08-04T17:25:46.659Z,22.37
2023-08-04T17:28:21.493Z,22.27
2023-08-04T17:31:01.560Z,22.39
2023-08-04T17:33:35.145Z,22.74
2023-08-04T17:36:12.623Z,22.66
2023-08-04T17:38:44.823Z,22.78
2023-08-04T17:41:19.142Z,22.82
2023-08-04T17:43:51.950Z,22.99
2023-08-04T17:46:24.528Z,22.84
2023-08-04T17:48:58.291Z,23.06
2023-08-04T17:51:30.572Z,23.17
2023-08-04T17:54:03.115Z,23.11
2023-08-04T17:56:37.449Z,23.25
2023-08-04T17:59:09.875Z,23.38
2023-08-04T18:01:43.443Z,23.51
2023-08-04T18:04:16.734Z,23.65
2023-08-04T18:06:49.266Z,23.65
2023-08-04T18:09:21.740Z,23.76
2023-08-04T18:11:54.079Z,23.82
2023-08-04T18:14:26.390Z,23.75
2023-08-04T18:16:58.475Z,23.99
2023-08-04T18:19:30.986Z,24.06
2023-08-04T18:22:04.451Z,24.30
2023-08-04T18:24:38.483Z,24.28
2023-08-04T18:27:14.060Z,24.45
2023-08-04T18:29:46.898Z,24.62
2023-08-04T18:32:21.067Z,24.81
2023-08-04T18:34:54.179Z,24.88
2023-08-04T18:37:26.473Z,25.18
2023-08-04T18:40:04.729Z,25.25
2023-08-04T18:42:39.439Z,25.23
2023-08-04T18:45:14.109Z,25.20
2023-08-04T18:47:46.932Z,25.61
2023-08-04T18:50:20.423Z,25.65
2023-08-04T18:52:53.803Z,25.78
2023-08-04T18:55:27.331Z,25.63
2023-08-04T18:57:59.950Z,26.19
2023-08-04T19:00:32.498Z,26.10
2023-08-04T19:03:05.029Z,26.14
2023-08-04T19:05:37.702Z,25.90
2023-08-04T19:08:13.234Z,26.11
2023-08-04T19:10:45.492Z,26.38
2023-08-04T19:13:17.814Z,26.48
2023-08-04T19:15:50.031Z,26.35
2023-08-04T19:18:22.446Z,26.84
2023-08-04T19:20:54.746Z,26.78
2023-08-04T19:23:28.606Z,26.73
2023-08-04T19:26:02.700Z,26.88
2023-08-04T19:28:36.546Z,26.68
2023-08-04T19:31:08.982Z,27.20
2023-08-04T19:33:46.339Z,26.99
2023-08-04T19:36:19.733Z,27.41
2023-08-04T19:38:54.358Z,27.44
2023-08-04T19:41:29.282Z,27.23
2023-08-04T19:49:34.441Z,27.73
2023-08-04T19:51:38.379Z,27.92
2023-08-04T19:54:18.801Z,27.91
2023-08-04T19:56:53.260Z,28.02
2023-08-04T19:59:27.933Z,28.08
2023-08-04T20:02:03.176Z,28.16
2023-08-04T20:04:39.289Z,28.18
2023-08-04T20:07:11.722Z,28.31
2023-08-04T20:09:48.596Z,28.39
2023-08-04T20:12:22.173Z,28.39
2023-08-04T20:14:56.296Z,28.66
2023-08-04T20:17:31.041Z,28.66
2023-08-04T20:20:14.484Z,28.59
2023-08-04T20:22:47.444Z,28.84
2023-08-04T20:25:22.990Z,28.92
2023-08-04T20:27:57.702Z,29.07
2023-08-04T20:30:33.862Z,29.06
2023-08-04T20:33:11.190Z,29.06
2023-08-04T20:35:46.017Z,29.16
2023-08-04T20:38:18.972Z,29.27
2023-08-04T20:41:01.786Z,29.36
2023-08-04T20:43:34.970Z,29.38
2023-08-04T20:46:13.502Z,29.50
2023-08-04T20:48:47.586Z,29.61
2023-08-04T20:51:20.317Z,29.69
2023-08-04T20:53:54.744Z,29.68
2023-08-04T20:56:37.155Z,29.94
2023-08-04T20:59:12.202Z,29.91
2023-08-04T21:01:47.699Z,30.01
2023-08-04T21:07:06.704Z,29.98
2023-08-04T21:11:32.171Z,30.29
2023-08-04T21:14:32.635Z,30.40
2023-08-04T21:17:05.008Z,30.35
2023-08-04T21:20:06.895Z,30.57
2023-08-04T21:22:58.209Z,30.72
2023-08-04T21:26:08.979Z,30.67
2023-08-04T21:28:59.466Z,30.88
2023-08-04T21:32:11.749Z,30.76
2023-08-04T21:34:42.211Z,31.04
2023-08-04T21:37:16.944Z,30.96
2023-08-04T21:39:53.664Z,31.12
2023-08-04T21:42:34.211Z,31.31
2023-08-04T21:45:23.913Z,31.24
2023-08-04T21:48:01.487Z,31.28
2023-08-04T21:50:41.912Z,31.29
2023-08-04T21:53:15.132Z,31.44
2023-08-04T21:55:57.100Z,31.38
2023-08-04T21:58:31.846Z,31.45
2023-08-04T22:01:10.597Z,31.64
2023-08-04T22:03:43.553Z,31.47
2023-08-04T22:06:17.459Z,31.39
2023-08-04T22:11:58.606Z,31.42
2023-08-04T22:14:39.571Z,31.53
2023-08-04T22:18:19.187Z,31.46
2023-08-04T22:21:27.267Z,31.43
2023-08-04T22:24:17.116Z,31.04
2023-08-04T22:27:21.035Z,31.06
2023-08-04T22:30:36.989Z,30.84
2023-08-04T22:36:08.110Z,30.63
2023-08-04T22:36:56.697Z,30.77
2023-08-04T22:39:56.580Z,30.72
2023-08-04T22:43:13.485Z,30.92
2023-08-04T22:46:52.110Z,30.74
2023-08-04T22:49:27.552Z,31.13
2023-08-04T22:52:02.982Z,31.11
2023-08-04T22:54:36.144Z,31.26
2023-08-04T22:57:10.477Z,31.24
2023-08-04T22:59:43.207Z,31.67
2023-08-04T23:02:16.570Z,31.69
2023-08-04T23:04:49.615Z,31.65
2023-08-04T23:07:27.695Z,31.94
2023-08-04T23:10:01.312Z,31.97
2023-08-04T23:12:36.574Z,32.11
2023-08-04T23:15:12.452Z,32.20
2023-08-04T23:17:53.676Z,32.38
2023-08-04T23:20:30.155Z,32.43
2023-08-04T23:23:04.521Z,32.23
2023-08-04T23:25:39.724Z,32.69
2023-08-04T23:28:17.066Z,32.55
2023-08-04T23:42:03.302Z,33.25
2023-08-04T23:44:35.930Z,33.17
2023-08-04T23:47:09.487Z,33.72
2023-08-04T23:49:42.613Z,33.46
2023-08-04T23:52:15.177Z,33.78
2023-08-04T23:54:48.203Z,33.78
2023-08-04T23:57:21.210Z,33.91
2023-08-04T23:59:54.936Z,34.22
